Time;durP1;ratioP1;P1;durP2;ratioP2;P2;SDS_P1;SDS_P2;PMS_P1;PMS_P2;Temp;Humidity;BMP_temperature;BMP_pressure;BME280_temperature;BME280_humidity;BME280_pressure;Samples;Min_cycle;Max_cycle;Signal;HPM_P1;HPM_P2
2021/10/28 00:14:21;;;;;;;6.90;4.00;;;14.50;95.70;;;;;;5095563;28;20040;-64
2021/10/28 00:16:49;;;;;;;5.97;4.15;;;14.40;95.70;;;;;;5094791;28;20056;-64
2021/10/28 00:19:15;;;;;;;6.40;3.85;;;14.40;95.80;;;;;;5093128;28;20430;-63
2021/10/28 00:21:41;;;;;;;5.53;4.15;;;14.30;95.80;;;;;;5075634;28;20063;-63
2021/10/28 00:24:11;;;;;;;6.43;4.22;;;14.20;95.90;;;;;;5084459;28;20575;-64
2021/10/28 00:26:39;;;;;;;6.95;4.65;;;14.20;95.90;;;;;;5074497;28;20025;-64
2021/10/28 00:29:06;;;;;;;5.95;4.25;;;14.10;95.90;;;;;;5087796;28;20035;-64
2021/10/28 00:31:35;;;;;;;7.13;4.15;;;14.10;96.00;;;;;;5094556;28;20020;-64
2021/10/28 00:34:01;;;;;;;6.38;4.65;;;14.00;96.10;;;;;;5092363;28;20101;-64
2021/10/28 00:36:47;;;;;;;6.70;4.55;;;14.00;96.10;;;;;;5093517;28;20054;-64
2021/10/28 00:39:13;;;;;;;5.60;4.30;;;13.90;96.10;;;;;;5078183;28;20032;-64
2021/10/28 00:41:38;;;;;;;5.82;4.63;;;13.90;96.20;;;;;;5074021;28;20476;-65
2021/10/28 00:44:07;;;;;;;6.00;4.88;;;13.80;96.20;;;;;;5088103;28;20035;-63
2021/10/28 00:46:35;;;;;;;6.38;4.75;;;13.80;96.30;;;;;;5095451;28;20111;-63
2021/10/28 00:49:02;;;;;;;5.93;4.63;;;13.70;96.40;;;;;;5081819;28;20040;-64
2021/10/28 00:51:29;;;;;;;5.78;4.43;;;13.70;96.40;;;;;;5077193;28;20035;-64
2021/10/28 00:53:56;;;;;;;6.32;4.50;;;13.70;96.50;;;;;;5086849;28;20060;-63
2021/10/28 00:56:24;;;;;;;7.47;5.05;;;13.60;96.50;;;;;;5095752;28;20030;-64
2021/10/28 00:58:50;;;;;;;6.75;4.90;;;13.60;96.50;;;;;;5094529;28;20068;-64
2021/10/28 01:01:34;;;;;;;8.70;5.57;;;13.50;96.50;;;;;;5095726;28;20544;-64
2021/10/28 01:04:20;;;;;;;7.53;5.07;;;13.50;96.60;;;;;;5090197;28;20507;-63
2021/10/28 01:06:54;;;;;;;8.68;5.22;;;13.40;96.60;;;;;;5094788;28;20036;-65
2021/10/28 01:09:23;;;;;;;7.90;5.28;;;13.40;96.70;;;;;;5092686;28;20036;-64
2021/10/28 01:11:51;;;;;;;6.30;4.85;;;13.30;96.80;;;;;;5094066;28;20020;-65
2021/10/28 01:14:17;;;;;;;7.40;5.45;;;13.30;96.80;;;;;;5092057;28;20032;-64
2021/10/28 01:16:43;;;;;;;6.78;5.07;;;13.20;96.80;;;;;;5093330;28;20035;-63
2021/10/28 01:19:09;;;;;;;6.47;5.15;;;13.20;96.90;;;;;;5075121;28;20036;-63
2021/10/28 01:21:34;;;;;;;6.28;4.70;;;13.10;96.90;;;;;;5085771;28;20391;-63
2021/10/28 01:24:00;;;;;;;6.07;4.68;;;13.10;97.00;;;;;;5084243;28;20032;-64
2021/10/28 01:26:26;;;;;;;6.65;5.00;;;13.10;97.00;;;;;;5073348;28;20368;-64
2021/10/28 01:28:53;;;;;;;7.18;5.18;;;13.00;97.00;;;;;;5076941;28;20119;-63
2021/10/28 01:31:21;;;;;;;7.35;5.50;;;13.00;97.00;;;;;;5093878;28;20040;-63
2021/10/28 01:33:47;;;;;;;6.88;5.28;;;13.00;97.10;;;;;;5088002;28;20111;-63
2021/10/28 01:36:13;;;;;;;8.82;6.00;;;13.00;97.10;;;;;;5073452;28;20417;-63
2021/10/28 01:38:41;;;;;;;8.45;5.93;;;12.90;97.10;;;;;;5075356;28;20307;-64
2021/10/28 01:41:07;;;;;;;7.18;5.95;;;12.90;97.20;;;;;;5093462;28;20047;-63
2021/10/28 01:43:34;;;;;;;7.40;5.70;;;12.80;97.20;;;;;;5089781;28;20486;-64
2021/10/28 01:46:00;;;;;;;8.98;6.30;;;12.80;97.30;;;;;;5073130;28;20100;-64
2021/10/28 01:48:26;;;;;;;8.85;6.32;;;12.80;97.30;;;;;;5074427;28;20070;-64
2021/10/28 01:50:53;;;;;;;9.02;6.45;;;12.80;97.30;;;;;;5093490;28;20181;-64
2021/10/28 01:53:19;;;;;;;9.77;6.85;;;12.80;97.40;;;;;;5073422;28;20048;-64
2021/10/28 01:55:46;;;;;;;9.25;6.57;;;12.80;97.40;;;;;;5072592;28;20024;-64
2021/10/28 01:58:11;;;;;;;7.97;6.30;;;12.80;97.40;;;;;;5071836;28;20055;-64
2021/10/28 02:00:39;;;;;;;8.98;6.35;;;12.70;97.40;;;;;;5091350;28;20085;-64
2021/10/28 02:03:04;;;;;;;9.10;6.85;;;12.70;97.50;;;;;;5083819;28;20086;-64
2021/10/28 02:05:30;;;;;;;9.88;6.63;;;12.70;97.50;;;;;;5090034;28;20107;-64
2021/10/28 02:07:56;;;;;;;10.63;8.05;;;12.60;97.50;;;;;;5092661;28;20433;-64
2021/10/28 02:10:22;;;;;;;9.10;7.20;;;12.60;97.50;;;;;;5074287;28;20029;-63
2021/10/28 02:12:49;;;;;;;11.57;7.45;;;12.60;97.60;;;;;;5072284;28;20032;-63
2021/10/28 02:15:18;;;;;;;10.10;7.78;;;12.60;97.60;;;;;;5088122;28;20486;-63
2021/10/28 02:17:44;;;;;;;10.13;7.55;;;12.50;97.60;;;;;;5093511;28;20036;-64
2021/10/28 02:20:12;;;;;;;12.15;7.95;;;12.50;97.60;;;;;;5078693;28;20016;-64
2021/10/28 02:22:38;;;;;;;10.68;7.85;;;12.50;97.70;;;;;;5072602;28;20388;-63
2021/10/28 02:25:05;;;;;;;9.98;8.25;;;12.40;97.70;;;;;;5086197;28;20099;-63
2021/10/28 02:27:30;;;;;;;9.90;7.80;;;12.40;97.70;;;;;;5091145;28;20123;-63
2021/10/28 02:29:56;;;;;;;11.50;8.40;;;12.40;97.70;;;;;;5089405;28;20103;-63
2021/10/28 02:32:22;;;;;;;12.13;8.50;;;12.40;97.80;;;;;;5092240;28;20020;-64
2021/10/28 02:34:47;;;;;;;13.75;9.13;;;12.40;97.80;;;;;;5089890;28;20028;-63
2021/10/28 02:37:13;;;;;;;13.10;8.85;;;12.30;97.80;;;;;;5092031;28;20024;-64
2021/10/28 02:39:38;;;;;;;12.90;8.65;;;12.30;97.90;;;;;;5079769;28;20033;-63
2021/10/28 02:42:05;;;;;;;10.68;8.07;;;12.30;97.90;;;;;;5072029;28;20473;-64
2021/10/28 02:44:30;;;;;;;10.27;8.10;;;12.20;98.00;;;;;;5080569;28;20024;-63
2021/10/28 02:46:56;;;;;;;12.40;8.85;;;12.20;98.00;;;;;;5092067;28;20422;-63
2021/10/28 02:49:21;;;;;;;10.90;8.57;;;12.20;98.10;;;;;;5082532;28;20024;-63
2021/10/28 02:51:47;;;;;;;10.18;7.93;;;12.20;98.10;;;;;;5085658;28;20036;-63
2021/10/28 02:54:18;;;;;;;10.32;8.00;;;12.20;98.10;;;;;;5089574;28;20077;-63
2021/10/28 02:56:44;;;;;;;12.02;9.13;;;12.10;98.10;;;;;;5091825;28;20027;-63
2021/10/28 02:59:10;;;;;;;10.93;8.55;;;12.10;98.10;;;;;;5083429;28;20113;-63
2021/10/28 03:01:50;;;;;;;11.48;8.30;;;12.10;98.10;;;;;;5071464;28;20087;-63
2021/10/28 03:04:19;;;;;;;13.38;8.93;;;12.10;98.20;;;;;;5079083;28;20162;-63
2021/10/28 03:06:45;;;;;;;11.23;8.40;;;12.10;98.20;;;;;;5091944;28;20024;-63
2021/10/28 03:09:15;;;;;;;10.13;7.65;;;12.00;98.20;;;;;;5083509;28;20025;-63
2021/10/28 03:11:42;;;;;;;12.35;8.73;;;12.00;98.30;;;;;;5071667;28;20020;-63
2021/10/28 03:14:14;;;;;;;10.13;7.95;;;12.00;98.30;;;;;;5071589;28;20033;-63
2021/10/28 03:16:55;;;;;;;10.98;7.90;;;12.00;98.30;;;;;;5071577;28;20477;-63
2021/10/28 03:19:36;;;;;;;12.15;8.25;;;12.00;98.30;;;;;;5079278;28;20050;-63
2021/10/28 03:27:31;;;;;;;12.37;9.43;;;11.90;98.30;;;;;;5071330;28;20499;-63
2021/10/28 03:29:57;;;;;;;10.70;8.27;;;11.90;98.30;;;;;;5071757;28;20092;-63
2021/10/28 03:32:24;;;;;;;10.77;8.38;;;11.90;98.40;;;;;;5071044;28;20150;-63
2021/10/28 03:34:50;;;;;;;11.15;8.25;;;11.80;98.40;;;;;;5071204;28;20032;-63
2021/10/28 03:40:10;;;;;;;11.15;8.70;;;11.90;98.50;;;;;;5085472;28;20046;-63
2021/10/28 03:56:11;;;;;;;12.57;9.05;;;11.70;98.50;;;;;;5098904;28;20028;-63
2021/10/28 03:59:01;;;;;;;12.63;8.18;;;11.70;98.60;;;;;;5109959;28;20459;-63
2021/10/28 04:02:57;;;;;;;10.50;8.15;;;11.60;98.60;;;;;;5074075;28;20040;-63
2021/10/28 04:07:11;;;;;;;12.00;8.13;;;11.60;98.60;;;;;;5095125;28;20031;-64
2021/10/28 04:20:47;;;;;;;11.80;8.75;;;11.60;98.60;;;;;;5092362;28;20047;-63
2021/10/28 04:31:31;;;;;;;12.82;9.20;;;11.40;98.70;;;;;;5074368;28;20036;-64
2021/10/28 04:34:03;;;;;;;12.23;9.15;;;11.50;98.80;;;;;;5079350;28;20098;-64
2021/10/28 04:36:30;;;;;;;11.43;8.13;;;11.40;98.70;;;;;;5094387;28;20081;-64
2021/10/28 04:38:56;;;;;;;12.10;8.88;;;11.50;98.70;;;;;;5087287;28;20099;-64
2021/10/28 04:41:22;;;;;;;13.80;9.32;;;11.40;98.80;;;;;;5073569;28;20093;-64
2021/10/28 04:43:47;;;;;;;12.23;8.93;;;11.30;98.80;;;;;;5073832;28;20028;-64
2021/10/28 04:46:13;;;;;;;15.68;8.77;;;11.30;98.80;;;;;;5073998;28;20035;-63
2021/10/28 04:48:38;;;;;;;14.35;9.63;;;11.40;98.90;;;;;;5074243;28;20019;-64
2021/10/28 04:51:04;;;;;;;11.02;8.38;;;11.30;98.90;;;;;;5072947;28;20111;-64
2021/10/28 04:53:29;;;;;;;13.68;8.85;;;11.30;98.90;;;;;;5073885;28;20547;-64
2021/10/28 04:55:55;;;;;;;12.98;9.05;;;11.30;98.90;;;;;;5073816;28;20109;-64
2021/10/28 04:58:21;;;;;;;13.88;9.38;;;11.30;98.90;;;;;;5073522;28;20060;-64
2021/10/28 05:00:47;;;;;;;13.05;9.00;;;11.30;98.90;;;;;;5073568;28;20056;-64
2021/10/28 05:03:12;;;;;;;14.43;9.27;;;11.30;99.00;;;;;;5080295;28;20019;-64
2021/10/28 05:05:38;;;;;;;13.80;9.15;;;11.30;98.90;;;;;;5074176;28;20068;-64
2021/10/28 05:08:04;;;;;;;13.93;9.25;;;11.30;99.00;;;;;;5073637;28;20411;-64
2021/10/28 05:10:31;;;;;;;15.48;9.75;;;11.30;99.00;;;;;;5090794;28;20028;-64
2021/10/28 05:12:57;;;;;;;12.15;8.73;;;11.30;99.00;;;;;;5093713;28;20428;-64
2021/10/28 05:15:23;;;;;;;13.77;9.18;;;11.30;99.00;;;;;;5075009;28;20116;-64
2021/10/28 05:17:48;;;;;;;14.45;9.75;;;11.20;99.00;;;;;;5075978;28;20074;-64
2021/10/28 05:20:14;;;;;;;12.45;9.05;;;11.10;99.00;;;;;;5088418;28;20028;-64
2021/10/28 05:22:40;;;;;;;12.32;9.18;;;11.20;99.10;;;;;;5093854;28;20031;-63
2021/10/28 05:25:06;;;;;;;13.32;9.38;;;11.20;99.10;;;;;;5092311;28;20036;-64
2021/10/28 05:27:31;;;;;;;12.88;9.73;;;11.20;99.10;;;;;;5093499;28;20028;-63
2021/10/28 05:29:57;;;;;;;14.05;9.35;;;11.20;99.10;;;;;;5091387;28;20103;-65
2021/10/28 05:32:22;;;;;;;13.30;9.18;;;11.10;99.10;;;;;;5093280;28;20039;-63
2021/10/28 05:34:48;;;;;;;11.23;8.50;;;11.00;99.10;;;;;;5079694;28;20033;-64
2021/10/28 05:37:15;;;;;;;14.18;9.50;;;11.10;99.20;;;;;;5072992;28;20021;-63
2021/10/28 05:39:40;;;;;;;13.25;9.93;;;11.00;99.20;;;;;;5083942;28;20059;-64
2021/10/28 05:42:06;;;;;;;14.32;9.70;;;11.00;99.20;;;;;;5092999;28;20068;-64
2021/10/28 05:44:31;;;;;;;13.77;9.35;;;11.00;99.20;;;;;;5079839;28;20020;-63
2021/10/28 05:46:57;;;;;;;15.73;9.90;;;11.00;99.20;;;;;;5073249;28;20029;-63
2021/10/28 05:49:23;;;;;;;14.95;10.02;;;11.00;99.20;;;;;;5075549;28;20027;-63
2021/10/28 05:51:50;;;;;;;16.33;9.73;;;11.00;99.20;;;;;;5072923;28;20035;-63
2021/10/28 05:54:15;;;;;;;14.63;9.50;;;11.00;99.20;;;;;;5072728;28;20049;-64
2021/10/28 05:56:41;;;;;;;13.55;10.05;;;11.00;99.20;;;;;;5072586;28;20032;-64
2021/10/28 05:59:06;;;;;;;13.35;8.98;;;11.00;99.20;;;;;;5072414;28;20059;-64
2021/10/28 06:01:32;;;;;;;14.25;10.15;;;11.00;99.30;;;;;;5071305;28;20377;-64
2021/10/28 06:03:57;;;;;;;14.68;9.65;;;11.00;99.30;;;;;;5072823;28;20066;-64
2021/10/28 06:06:23;;;;;;;15.13;9.52;;;10.90;99.30;;;;;;5071150;28;20028;-64
2021/10/28 06:08:49;;;;;;;14.70;10.25;;;10.90;99.40;;;;;;5072615;28;20036;-64
2021/10/28 06:11:16;;;;;;;15.40;9.43;;;11.00;99.40;;;;;;5072113;28;20617;-65
2021/10/28 06:13:44;;;;;;;13.95;9.40;;;10.90;99.40;;;;;;5072987;28;20394;-64
2021/10/28 06:16:10;;;;;;;13.35;9.10;;;11.00;99.40;;;;;;5078159;28;20076;-64
2021/10/28 06:18:38;;;;;;;15.40;9.07;;;11.00;99.60;;;;;;5073684;28;20116;-64
2021/10/28 06:21:05;;;;;;;16.75;10.90;;;11.00;99.40;;;;;;5071374;28;20036;-63
2021/10/28 06:23:30;;;;;;;16.60;10.05;;;10.90;99.40;;;;;;5078438;28;20032;-63
2021/10/28 06:25:56;;;;;;;15.98;11.02;;;11.00;99.60;;;;;;5078625;28;20039;-64
2021/10/28 06:28:21;;;;;;;15.25;10.75;;;11.00;99.40;;;;;;5071213;28;20013;-63
2021/10/28 06:30:47;;;;;;;13.65;10.20;;;10.90;99.40;;;;;;5070835;28;20041;-63
2021/10/28 06:33:23;;;;;;;20.40;11.35;;;10.90;99.30;;;;;;5078494;28;20028;-63
2021/10/28 06:35:49;;;;;;;15.13;10.73;;;10.90;99.40;;;;;;5070828;28;20495;-63
2021/10/28 06:38:15;;;;;;;18.27;11.90;;;11.00;99.40;;;;;;5070154;28;20028;-65
2021/10/28 06:40:40;;;;;;;17.10;12.02;;;11.00;99.40;;;;;;5087492;28;20485;-64
2021/10/28 06:43:07;;;;;;;18.52;11.52;;;10.90;99.40;;;;;;5071011;28;20480;-64
2021/10/28 06:45:33;;;;;;;18.05;12.27;;;10.90;99.40;;;;;;5079398;28;20059;-64
2021/10/28 06:47:58;;;;;;;17.48;10.85;;;11.00;99.40;;;;;;5079991;28;20506;-64
2021/10/28 06:50:33;;;;;;;17.85;10.80;;;10.90;99.40;;;;;;5078403;28;20016;-64
2021/10/28 06:53:22;;;;;;;17.67;11.68;;;11.00;99.40;;;;;;5073643;28;20420;-65
2021/10/28 06:56:02;;;;;;;16.25;11.43;;;11.00;99.40;;;;;;5075212;28;20077;-63
2021/10/28 07:03:56;;;;;;;18.08;11.40;;;10.90;99.40;;;;;;5075751;28;20391;-64
2021/10/28 07:06:25;;;;;;;17.75;11.88;;;10.90;99.40;;;;;;5071120;28;20036;-64
2021/10/28 07:08:58;;;;;;;17.55;10.57;;;10.90;99.40;;;;;;5070916;28;20089;-65
2021/10/28 07:11:30;;;;;;;18.02;11.88;;;10.90;99.40;;;;;;5070064;28;20480;-64
2021/10/28 07:13:57;;;;;;;18.90;11.57;;;11.00;99.40;;;;;;5073947;28;20543;-64
2021/10/28 07:16:33;;;;;;;19.55;12.05;;;11.00;99.40;;;;;;5070744;28;20024;-64
2021/10/28 07:22:06;;;;;;;15.82;10.65;;;11.00;99.40;;;;;;5077964;28;20042;-64
2021/10/28 07:32:21;;;;;;;18.23;10.95;;;11.20;99.40;;;;;;5070270;28;20068;-64
2021/10/28 07:34:59;;;;;;;18.63;12.18;;;11.20;99.40;;;;;;5070446;28;20495;-65
2021/10/28 08:05:12;;;;;;;17.95;11.45;;;11.50;99.20;;;;;;5083735;28;20039;-63
2021/10/28 08:18:48;;;;;;;16.67;11.77;;;11.70;99.10;;;;;;5078101;28;20028;-63
2021/10/28 08:29:38;;;;;;;15.10;9.98;;;11.90;98.90;;;;;;5074109;28;20058;-62
2021/10/28 08:32:05;;;;;;;14.55;10.07;;;11.90;98.80;;;;;;5074166;28;20353;-63
2021/10/28 08:34:34;;;;;;;16.00;11.77;;;11.90;98.90;;;;;;5090916;28;20107;-62
2021/10/28 08:37:14;;;;;;;16.98;11.07;;;12.00;98.80;;;;;;5076476;28;20031;-63
2021/10/28 08:39:47;;;;;;;13.25;10.07;;;12.10;98.80;;;;;;5084886;28;20035;-63
2021/10/28 08:42:18;;;;;;;16.02;10.60;;;12.10;98.70;;;;;;5076003;28;20043;-63
2021/10/28 08:44:50;;;;;;;15.60;10.85;;;12.10;98.70;;;;;;5073744;28;20051;-63
2021/10/28 08:47:17;;;;;;;14.85;9.95;;;12.20;98.70;;;;;;5076307;28;20035;-63
2021/10/28 08:49:50;;;;;;;16.00;11.13;;;12.20;98.60;;;;;;5077491;28;20111;-63
2021/10/28 08:58:28;;;;;;;13.93;9.90;;;12.30;98.50;;;;;;5081483;28;20217;-63
2021/10/28 09:23:58;;;;;;;16.42;10.65;;;12.70;98.40;;;;;;5073218;28;20032;-64
2021/10/28 09:26:31;;;;;;;15.10;10.63;;;12.70;98.40;;;;;;5073042;28;20033;-64
2021/10/28 09:32:08;;;;;;;12.75;9.38;;;12.80;98.20;;;;;;5061053;28;20094;-63
2021/10/28 09:34:57;;;;;;;15.93;10.43;;;12.90;98.20;;;;;;5084568;28;20020;-63
2021/10/28 09:46:16;;;;;;;13.75;9.27;;;13.10;98.10;;;;;;5076188;28;20036;-63
2021/10/28 09:51:14;;;;;;;13.15;9.63;;;13.20;98.00;;;;;;5091950;28;20020;-63
2021/10/28 09:54:01;;;;;;;14.55;9.32;;;13.20;98.00;;;;;;5072285;28;20052;-63
2021/10/28 09:59:31;;;;;;;15.05;10.50;;;13.30;97.90;;;;;;5072496;28;20031;-63
2021/10/28 10:02:11;;;;;;;15.30;9.75;;;13.40;98.00;;;;;;5078626;28;20116;-63
2021/10/28 10:04:42;;;;;;;15.38;9.95;;;13.40;97.80;;;;;;5103255;28;20024;-63
2021/10/28 10:07:12;;;;;;;13.60;10.07;;;13.40;97.70;;;;;;5073016;28;20028;-63
2021/10/28 10:09:38;;;;;;;14.63;9.93;;;13.50;97.60;;;;;;5081871;28;20135;-63
2021/10/28 10:12:06;;;;;;;18.95;10.35;;;13.60;97.60;;;;;;5089985;28;20021;-63
2021/10/28 10:14:40;;;;;;;12.45;9.63;;;13.60;97.50;;;;;;5071592;28;20052;-62
2021/10/28 10:17:07;;;;;;;14.98;9.48;;;13.70;97.60;;;;;;5089692;28;20035;-62
2021/10/28 10:19:36;;;;;;;14.93;9.30;;;13.70;97.50;;;;;;5072472;28;20044;-64
2021/10/28 10:22:18;;;;;;;14.32;10.23;;;13.80;97.40;;;;;;5078270;28;20051;-63
2021/10/28 10:24:53;;;;;;;16.20;10.80;;;13.80;97.30;;;;;;5072251;28;20073;-63
2021/10/28 11:33:42;;;;;;;11.50;7.03;;;15.10;96.00;;;;;;5089840;28;20039;-62
2021/10/28 12:16:17;;;;;;;10.25;7.35;;;15.80;94.50;;;;;;5074458;28;20025;-63
2021/10/28 12:24:08;;;;;;;9.43;7.38;;;15.90;94.20;;;;;;5074308;28;20030;-64
2021/10/28 12:44:12;;;;;;;9.38;7.05;;;16.10;93.20;;;;;;5089896;28;20139;-64
2021/10/28 12:52:39;;;;;;;11.45;6.72;;;16.30;93.20;;;;;;5092920;28;20388;-64
2021/10/28 12:55:48;;;;;;;12.05;7.30;;;16.30;92.90;;;;;;5102116;28;20078;-64
2021/10/28 13:02:17;;;;;;;12.50;8.00;;;16.40;93.10;;;;;;5093809;28;20032;-64
2021/10/28 13:37:41;;;;;;;7.25;5.70;;;17.00;91.40;;;;;;5083512;28;20050;-64
2021/10/28 13:50:06;;;;;;;9.18;5.43;;;17.30;90.70;;;;;;5092666;28;20090;-64
2021/10/28 13:53:13;;;;;;;7.00;4.90;;;17.30;90.60;;;;;;5089929;28;20059;-65
2021/10/28 13:58:25;;;;;;;7.93;5.18;;;17.40;90.30;;;;;;5072179;28;20138;-64
2021/10/28 14:14:41;;;;;;;8.05;4.80;;;17.50;90.30;;;;;;5085431;28;20036;-64
2021/10/28 14:15:12;;;;;;;6.47;4.95;;;17.60;89.70;;;;;;5072059;28;20678;-64
2021/10/28 14:25:59;;;;;;;6.60;4.82;;;17.80;87.90;;;;;;5090773;28;20032;-63
2021/10/28 14:29:16;;;;;;;6.47;4.47;;;17.80;87.60;;;;;;5081584;28;20048;-64
2021/10/28 14:34:26;;;;;;;9.77;5.45;;;17.80;87.00;;;;;;5071615;28;20094;-64
2021/10/28 15:01:38;;;;;;;8.05;5.15;;;17.80;86.10;;;;;;5084114;28;20044;-64
2021/10/28 15:28:43;;;;;;;12.25;6.35;;;17.40;87.30;;;;;;5087709;28;20035;-64
2021/10/28 15:37:04;;;;;;;7.95;5.43;;;17.20;87.80;;;;;;5087185;28;20487;-63
2021/10/28 15:39:59;;;;;;;7.90;5.70;;;17.10;87.80;;;;;;5075190;28;20542;-64
2021/10/28 15:48:11;;;;;;;8.38;6.22;;;16.80;88.30;;;;;;5082787;28;20111;-63
2021/10/28 15:51:04;;;;;;;9.20;6.27;;;16.80;88.60;;;;;;5074385;28;20392;-63
2021/10/28 16:22:56;;;;;;;12.18;8.13;;;16.00;90.50;;;;;;5079280;28;20078;-63
2021/10/28 16:25:22;;;;;;;11.45;7.85;;;15.90;90.70;;;;;;5092632;28;20432;-64
2021/10/28 16:27:47;;;;;;;13.55;8.50;;;15.80;90.80;;;;;;5090447;28;20115;-64
2021/10/28 16:30:13;;;;;;;11.07;8.18;;;15.80;90.90;;;;;;5075864;28;20044;-64
2021/10/28 16:32:39;;;;;;;11.85;8.15;;;15.70;91.10;;;;;;5084594;28;20110;-64
2021/10/28 16:35:05;;;;;;;11.18;8.07;;;15.60;91.10;;;;;;5081453;28;20036;-64
2021/10/28 16:37:32;;;;;;;11.82;8.32;;;15.60;91.20;;;;;;5074273;28;20130;-64
2021/10/28 16:39:58;;;;;;;12.95;8.38;;;15.50;91.30;;;;;;5080027;28;20477;-64
2021/10/28 16:42:24;;;;;;;12.70;8.57;;;15.50;91.40;;;;;;5085789;28;20047;-63
2021/10/28 16:44:50;;;;;;;13.43;7.97;;;15.50;91.50;;;;;;5075297;28;20024;-64
2021/10/28 16:47:15;;;;;;;14.40;8.85;;;15.40;91.60;;;;;;5075763;28;20108;-63
2021/10/28 16:49:41;;;;;;;14.23;8.95;;;15.30;91.70;;;;;;5081422;28;20035;-62
2021/10/28 16:52:07;;;;;;;12.55;8.57;;;15.30;91.70;;;;;;5089642;28;20487;-62
2021/10/28 16:54:33;;;;;;;10.25;8.45;;;15.20;91.80;;;;;;5086056;28;20050;-63
2021/10/28 16:57:00;;;;;;;10.52;7.88;;;15.20;91.90;;;;;;5085921;28;20032;-63
2021/10/28 16:59:26;;;;;;;12.05;8.23;;;15.10;92.10;;;;;;5083766;28;20035;-63
2021/10/28 17:01:53;;;;;;;13.20;8.68;;;15.10;92.00;;;;;;5086016;28;20449;-63
2021/10/28 17:04:20;;;;;;;10.48;8.10;;;15.00;92.10;;;;;;5093762;28;20028;-63
2021/10/28 17:06:45;;;;;;;11.93;7.88;;;15.00;92.20;;;;;;5076188;28;20102;-63
2021/10/28 17:09:11;;;;;;;12.45;8.68;;;15.00;92.30;;;;;;5074934;28;20464;-63
2021/10/28 17:11:39;;;;;;;12.88;8.85;;;14.90;92.40;;;;;;5080434;28;20041;-63
2021/10/28 17:14:07;;;;;;;15.57;8.98;;;14.90;92.50;;;;;;5072960;28;20095;-62
2021/10/28 17:16:35;;;;;;;15.80;8.95;;;14.80;92.50;;;;;;5073998;28;20028;-63
2021/10/28 17:19:01;;;;;;;16.02;10.23;;;14.80;92.60;;;;;;5088208;28;20035;-63
2021/10/28 17:21:27;;;;;;;13.82;8.90;;;14.70;92.70;;;;;;5081985;28;20036;-63
2021/10/28 17:24:03;;;;;;;12.80;9.70;;;14.70;92.80;;;;;;5073529;28;20023;-63
2021/10/28 17:26:30;;;;;;;15.70;9.15;;;14.70;92.90;;;;;;5084124;28;20496;-63
2021/10/28 17:29:00;;;;;;;13.80;9.52;;;14.60;93.00;;;;;;5089794;28;20032;-62
2021/10/28 17:31:31;;;;;;;12.75;9.35;;;14.60;93.10;;;;;;5073180;28;20039;-62
2021/10/28 17:33:57;;;;;;;13.07;9.38;;;14.50;93.20;;;;;;5080899;28;20024;-63
2021/10/28 17:36:23;;;;;;;12.52;9.27;;;14.50;93.20;;;;;;5093151;28;20488;-63
2021/10/28 17:38:49;;;;;;;12.98;9.50;;;14.50;93.30;;;;;;5084912;28;20039;-63
2021/10/28 17:41:16;;;;;;;12.45;9.65;;;14.40;93.40;;;;;;5085023;28;20047;-64
2021/10/28 17:43:45;;;;;;;14.80;9.52;;;14.30;93.40;;;;;;5077082;28;20408;-63
2021/10/28 17:46:13;;;;;;;14.80;10.25;;;14.30;93.50;;;;;;5074520;28;20035;-64
2021/10/28 17:48:39;;;;;;;15.68;9.95;;;14.30;93.60;;;;;;5073262;28;20029;-63
2021/10/28 17:51:04;;;;;;;13.68;9.95;;;14.20;93.90;;;;;;5074249;28;20032;-63
2021/10/28 17:53:30;;;;;;;13.32;9.52;;;14.20;93.70;;;;;;5091750;28;20508;-63
2021/10/28 17:55:56;;;;;;;14.00;9.15;;;14.10;93.80;;;;;;5082678;28;20172;-63
2021/10/28 17:58:21;;;;;;;11.27;8.65;;;14.10;93.90;;;;;;5072534;28;20358;-64
2021/10/28 18:00:47;;;;;;;12.05;8.82;;;14.10;93.90;;;;;;5071912;28;20017;-63
2021/10/28 18:03:18;;;;;;;13.07;9.68;;;14.00;93.90;;;;;;5072554;28;20024;-64
2021/10/28 18:05:45;;;;;;;13.43;8.98;;;14.00;93.90;;;;;;5087948;28;20533;-63
2021/10/28 18:08:10;;;;;;;11.45;8.93;;;14.00;93.90;;;;;;5084311;28;20103;-63
2021/10/28 18:10:36;;;;;;;12.98;9.05;;;14.00;94.00;;;;;;5072371;28;20028;-64
2021/10/28 18:13:04;;;;;;;14.82;9.00;;;13.90;94.10;;;;;;5083175;28;20028;-64
2021/10/28 18:15:30;;;;;;;12.35;8.98;;;13.90;94.20;;;;;;5072006;28;20024;-64
2021/10/28 18:17:56;;;;;;;11.57;9.25;;;13.80;94.10;;;;;;5081744;28;20027;-64
2021/10/28 18:20:22;;;;;;;12.60;8.80;;;13.80;94.20;;;;;;5085628;28;20028;-64
2021/10/28 18:22:50;;;;;;;13.18;9.30;;;13.80;94.10;;;;;;5072250;28;20086;-64
2021/10/28 18:25:17;;;;;;;12.63;9.02;;;13.70;94.10;;;;;;5076082;28;20020;-64
2021/10/28 18:27:42;;;;;;;13.70;10.00;;;13.70;94.20;;;;;;5092278;28;20050;-64
2021/10/28 18:30:11;;;;;;;11.63;8.82;;;13.70;94.20;;;;;;5083757;28;20414;-64
2021/10/28 18:32:38;;;;;;;12.27;9.60;;;13.70;94.30;;;;;;5084936;28;20035;-64
2021/10/28 18:35:04;;;;;;;12.80;9.55;;;13.60;94.20;;;;;;5077431;28;20044;-63
2021/10/28 18:37:30;;;;;;;12.18;9.00;;;13.60;94.20;;;;;;5073257;28;20024;-63
2021/10/28 18:39:56;;;;;;;14.05;9.70;;;13.60;94.30;;;;;;5072089;28;20487;-64
2021/10/28 18:42:21;;;;;;;11.52;8.77;;;13.50;94.30;;;;;;5080291;28;20028;-64
2021/10/28 18:44:47;;;;;;;13.75;9.80;;;13.50;94.20;;;;;;5080156;28;20111;-64
2021/10/28 18:47:13;;;;;;;12.85;9.00;;;13.40;94.40;;;;;;5086606;28;20028;-64
2021/10/28 18:49:40;;;;;;;14.00;9.82;;;13.40;94.30;;;;;;5080103;28;20029;-64
2021/10/28 18:52:05;;;;;;;12.55;9.95;;;13.40;94.40;;;;;;5083801;28;20401;-64
2021/10/28 18:54:31;;;;;;;13.20;9.57;;;13.40;94.30;;;;;;5091496;28;20080;-64
2021/10/28 18:56:57;;;;;;;12.05;9.52;;;13.30;94.40;;;;;;5089590;28;20028;-64
2021/10/28 18:59:23;;;;;;;13.70;9.98;;;13.30;94.40;;;;;;5089617;28;20399;-65
2021/10/28 19:01:50;;;;;;;18.17;10.80;;;13.30;94.40;;;;;;5084982;28;20048;-64
2021/10/28 19:04:17;;;;;;;15.23;10.35;;;13.20;94.40;;;;;;5071696;28;20032;-64
2021/10/28 19:06:42;;;;;;;14.70;10.55;;;13.10;94.50;;;;;;5074061;28;20024;-64
2021/10/28 19:09:08;;;;;;;13.50;10.23;;;13.10;94.70;;;;;;5091567;28;20017;-64
2021/10/28 19:11:34;;;;;;;15.10;9.77;;;13.10;94.50;;;;;;5089840;28;20554;-64
2021/10/28 19:13:59;;;;;;;17.17;10.90;;;13.00;94.50;;;;;;5091766;28;20028;-64
2021/10/28 19:16:25;;;;;;;14.68;9.82;;;13.00;94.60;;;;;;5088625;28;20035;-64
2021/10/28 19:18:51;;;;;;;18.05;9.52;;;13.00;94.60;;;;;;5091772;28;20050;-64
2021/10/28 19:21:16;;;;;;;12.48;9.60;;;12.90;94.60;;;;;;5077257;28;20047;-64
2021/10/28 19:23:42;;;;;;;15.75;9.98;;;12.90;94.60;;;;;;5071353;28;20384;-64
2021/10/28 19:26:09;;;;;;;15.00;10.00;;;12.90;94.60;;;;;;5071682;28;20029;-64
2021/10/28 19:28:35;;;;;;;11.80;9.02;;;12.80;94.60;;;;;;5071516;28;20044;-64
2021/10/28 19:31:13;;;;;;;12.75;9.13;;;12.80;94.60;;;;;;5081579;28;20384;-64
2021/10/28 19:33:47;;;;;;;13.73;9.25;;;12.80;94.70;;;;;;5088995;28;20120;-64
2021/10/28 19:36:18;;;;;;;13.25;9.50;;;12.70;94.60;;;;;;5070554;28;20040;-64
2021/10/28 19:38:55;;;;;;;15.73;9.43;;;12.70;94.60;;;;;;5071202;28;20064;-64
2021/10/28 19:41:54;;;;;;;12.63;9.70;;;12.70;94.70;;;;;;5088093;28;20040;-64
2021/10/28 19:47:05;;;;;;;;;;;12.60;94.70;;;;;;5088815;28;20032;-64
2021/10/28 19:49:31;;;;;;;14.32;9.13;;;12.60;94.50;;;;;;5088231;28;19908;-64
2021/10/28 19:52:00;;;;;;;11.88;8.23;;;12.50;94.60;;;;;;5071208;28;20026;-64
2021/10/28 19:54:26;;;;;;;12.82;9.18;;;12.40;94.70;;;;;;5090820;28;20052;-64
2021/10/28 19:56:52;;;;;;;15.93;9.73;;;12.40;94.60;;;;;;5091812;28;20022;-64
2021/10/28 19:59:18;;;;;;;11.93;8.75;;;12.40;94.60;;;;;;5090533;28;20430;-64
2021/10/28 20:01:54;;;;;;;13.05;9.13;;;12.40;94.60;;;;;;5089766;28;20028;-64
2021/10/28 20:20:06;;;;;;;12.30;7.65;;;12.20;94.30;;;;;;5088873;28;20076;-64
2021/10/28 20:22:33;;;;;;;10.65;7.28;;;12.10;94.30;;;;;;5093003;28;20399;-64
2021/10/28 20:24:59;;;;;;;12.13;7.47;;;12.10;94.30;;;;;;5079547;28;20032;-64
2021/10/28 20:27:25;;;;;;;12.50;7.63;;;12.10;94.30;;;;;;5073770;28;20078;-64
2021/10/28 20:29:51;;;;;;;9.90;7.00;;;12.10;94.30;;;;;;5074515;28;20103;-64
2021/10/28 20:32:17;;;;;;;11.10;7.40;;;12.10;94.30;;;;;;5075964;28;20120;-64
2021/10/28 20:37:27;;;;;;;12.43;7.25;;;12.10;94.40;;;;;;5074295;28;20502;-64
2021/10/28 20:39:53;;;;;;;12.07;7.57;;;12.00;94.40;;;;;;5081318;28;20104;-64
2021/10/28 20:42:18;;;;;;;9.93;6.97;;;12.00;94.40;;;;;;5073282;28;20074;-64
2021/10/28 20:44:45;;;;;;;9.60;7.97;;;12.00;94.40;;;;;;5086840;28;20032;-64
2021/10/28 20:47:11;;;;;;;12.43;8.20;;;12.00;94.40;;;;;;5072235;28;20032;-64
2021/10/28 20:49:37;;;;;;;12.48;7.75;;;11.90;94.40;;;;;;5081158;28;20098;-64
2021/10/28 20:52:03;;;;;;;11.55;7.45;;;11.90;94.40;;;;;;5084954;28;20476;-64